createdAt,value
2022-07-28T00:00:24.212Z,1.67
2022-07-28T00:05:27.856Z,1.77
2022-07-28T00:10:32.225Z,1.80
2022-07-28T00:15:36.743Z,1.70
2022-07-28T00:20:39.795Z,2.10
2022-07-28T00:25:42.819Z,1.83
2022-07-28T00:30:47.262Z,2.25
2022-07-28T00:35:50.375Z,1.73
2022-07-28T00:41:11.948Z,1.83
2022-07-28T00:46:18.766Z,1.92
2022-07-28T00:51:25.055Z,2.22
2022-07-28T00:56:28.309Z,2.13
2022-07-28T01:01:32.813Z,1.95
2022-07-28T01:06:49.944Z,2.20
2022-07-28T01:12:00.120Z,2.20
2022-07-28T01:17:12.680Z,1.85
2022-07-28T01:22:21.661Z,2.25
2022-07-28T01:27:46.703Z,2.50
2022-07-28T01:32:58.274Z,2.05
2022-07-28T01:38:06.538Z,2.00
2022-07-28T01:43:14.249Z,2.20
2022-07-28T01:48:21.142Z,2.08
2022-07-28T01:53:26.152Z,2.45
2022-07-28T01:58:31.273Z,2.30
2022-07-28T02:03:36.914Z,2.30
2022-07-28T02:08:41.899Z,2.08
2022-07-28T02:13:47.447Z,2.10
2022-07-28T02:18:53.560Z,2.40
2022-07-28T02:23:57.860Z,2.40
2022-07-28T02:29:04.210Z,2.30
2022-07-28T02:34:09.630Z,2.35
2022-07-28T02:39:21.252Z,2.90
2022-07-28T02:44:29.448Z,3.10
2022-07-28T02:49:36.380Z,2.90
2022-07-28T02:54:42.144Z,3.10
2022-07-28T02:59:45.955Z,2.92
2022-07-28T03:05:01.872Z,3.03
2022-07-28T03:10:06.012Z,2.95
2022-07-28T03:15:10.263Z,3.20
2022-07-28T03:20:15.748Z,2.90
2022-07-28T03:25:24.418Z,3.08
2022-07-28T03:30:30.515Z,3.28
2022-07-28T03:35:38.744Z,3.10
2022-07-28T03:40:46.064Z,2.90
2022-07-28T03:45:50.410Z,3.50
2022-07-28T03:50:54.894Z,3.20
2022-07-28T03:55:58.586Z,3.42
2022-07-28T04:01:01.714Z,3.20
2022-07-28T04:06:06.215Z,3.03
2022-07-28T04:11:09.279Z,2.97
2022-07-28T04:16:12.343Z,2.92
2022-07-28T04:21:16.920Z,2.72
2022-07-28T04:26:20.355Z,2.75
2022-07-28T04:31:23.559Z,3.03
2022-07-28T04:36:28.469Z,2.80
2022-07-28T04:41:31.464Z,2.83
2022-07-28T04:46:35.931Z,2.80
2022-07-28T04:51:40.584Z,2.90
2022-07-28T04:56:43.704Z,2.55
2022-07-28T05:01:46.852Z,2.40
2022-07-28T05:06:51.477Z,2.80
2022-07-28T05:11:54.730Z,2.88
2022-07-28T05:16:57.803Z,2.80
2022-07-28T05:22:02.691Z,2.60
2022-07-28T05:27:05.772Z,2.63
2022-07-28T05:32:15.610Z,2.55
2022-07-28T05:37:22.016Z,2.42
2022-07-28T05:42:26.536Z,2.72
2022-07-28T05:47:29.543Z,2.60
2022-07-28T05:52:34.070Z,2.40
2022-07-28T05:57:37.311Z,2.30
2022-07-28T06:02:40.492Z,2.75
2022-07-28T06:07:45.872Z,2.80
2022-07-28T06:12:50.534Z,2.42
2022-07-28T06:17:55.521Z,2.35
2022-07-28T06:23:00.343Z,2.53
2022-07-28T06:28:03.876Z,2.75
2022-07-28T06:33:07.765Z,2.40
2022-07-28T06:38:12.215Z,2.70
2022-07-28T06:43:15.462Z,3.00
2022-07-28T06:48:20.111Z,2.40
2022-07-28T06:53:24.544Z,2.60
2022-07-28T06:58:27.572Z,2.60
2022-07-28T07:03:30.604Z,2.70
2022-07-28T07:08:35.043Z,2.85
2022-07-28T07:13:38.052Z,2.75
2022-07-28T07:18:41.095Z,2.67
2022-07-28T07:23:45.528Z,2.65
2022-07-28T07:28:48.680Z,2.42
2022-07-28T07:33:51.756Z,2.45
2022-07-28T07:38:56.366Z,2.60
2022-07-28T07:43:59.425Z,2.67
2022-07-28T07:49:02.501Z,2.55
2022-07-28T07:54:07.102Z,2.35
2022-07-28T07:59:12.956Z,2.85
2022-07-28T08:04:16.390Z,2.78
2022-07-28T08:09:21.524Z,2.50
2022-07-28T08:14:24.720Z,2.63
2022-07-28T08:19:28.315Z,2.70
2022-07-28T08:24:34.269Z,2.60
2022-07-28T08:29:37.607Z,2.80
2022-07-28T08:34:40.639Z,2.70
2022-07-28T08:39:45.511Z,2.65
2022-07-28T08:44:53.709Z,2.75
2022-07-28T08:49:59.513Z,2.80
2022-07-28T08:55:07.313Z,2.90
2022-07-28T09:00:12.163Z,3.00
2022-07-28T09:05:15.395Z,2.83
2022-07-28T09:10:20.309Z,2.53
2022-07-28T09:15:23.795Z,2.88
2022-07-28T09:20:29.339Z,3.10
2022-07-28T09:25:34.184Z,2.92
2022-07-28T09:30:45.685Z,2.83
2022-07-28T09:35:58.857Z,2.92
2022-07-28T09:41:07.149Z,2.90
2022-07-28T09:46:12.818Z,2.85
2022-07-28T09:51:17.398Z,3.03
2022-07-28T09:56:23.457Z,3.22
2022-07-28T10:01:33.351Z,3.38
2022-07-28T10:06:40.716Z,3.08
2022-07-28T10:11:45.420Z,2.83
2022-07-28T10:16:52.745Z,3.17
2022-07-28T10:21:57.596Z,2.85
2022-07-28T10:27:05.011Z,3.03
2022-07-28T10:32:08.492Z,3.30
2022-07-28T10:37:18.719Z,3.50
2022-07-28T10:42:23.483Z,2.95
2022-07-28T10:47:35.898Z,3.10
2022-07-28T10:52:53.514Z,3.42
2022-07-28T10:58:11.936Z,3.85
2022-07-28T11:03:37.830Z,3.65
2022-07-28T11:08:40.963Z,3.67
2022-07-28T11:13:45.392Z,3.58
2022-07-28T11:19:07.829Z,3.58
2022-07-28T11:25:20.624Z,3.40
2022-07-28T11:30:55.225Z,3.42
2022-07-28T11:36:00.619Z,4.00
2022-07-28T11:41:30.025Z,4.03
2022-07-28T11:46:38.518Z,3.70
2022-07-28T11:51:52.650Z,3.28
2022-07-28T11:56:59.732Z,3.90
2022-07-28T12:02:04.168Z,3.92
2022-07-28T12:07:08.623Z,3.70
2022-07-28T12:12:12.523Z,4.07
2022-07-28T12:17:17.121Z,4.13
2022-07-28T12:22:21.156Z,3.55
2022-07-28T12:27:29.495Z,3.65
2022-07-28T12:32:36.839Z,3.22
2022-07-28T12:37:40.271Z,3.35
2022-07-28T12:42:43.339Z,3.47
2022-07-28T12:47:47.891Z,3.85
2022-07-28T12:53:07.221Z,3.60
2022-07-28T12:58:23.915Z,3.70
2022-07-28T13:03:31.201Z,3.88
2022-07-28T13:08:44.685Z,3.67
2022-07-28T13:13:49.943Z,3.72
2022-07-28T13:18:58.012Z,3.85
2022-07-28T13:24:01.198Z,3.85
2022-07-28T13:29:12.564Z,4.25
2022-07-28T13:34:18.250Z,4.03
2022-07-28T13:39:22.740Z,3.65
2022-07-28T13:44:25.994Z,3.72
2022-07-28T13:49:31.842Z,3.90
2022-07-28T13:54:35.878Z,3.80
2022-07-28T13:59:39.887Z,3.38
2022-07-28T14:04:46.164Z,3.30
2022-07-28T14:09:54.142Z,3.97
2022-07-28T14:14:57.752Z,3.40
2022-07-28T14:20:02.834Z,3.60
2022-07-28T14:25:07.020Z,3.60
2022-07-28T14:30:12.309Z,3.92
2022-07-28T14:35:38.363Z,3.72
2022-07-28T14:40:43.081Z,3.20
2022-07-28T14:46:00.568Z,3.10
2022-07-28T14:51:17.389Z,3.53
2022-07-28T14:56:21.436Z,3.17
2022-07-28T15:01:25.399Z,3.95
2022-07-28T15:06:30.337Z,3.80
2022-07-28T15:11:34.308Z,3.40
2022-07-28T15:16:38.597Z,3.65
2022-07-28T15:21:47.523Z,3.35
2022-07-28T15:26:51.261Z,3.28
2022-07-28T15:31:54.787Z,3.28
2022-07-28T15:37:04.790Z,3.28
2022-07-28T15:42:11.281Z,3.00
2022-07-28T15:47:18.667Z,3.22
2022-07-28T15:52:26.332Z,3.10
2022-07-28T15:57:37.810Z,2.97
2022-07-28T16:02:45.900Z,3.45
2022-07-28T16:07:50.576Z,3.28
2022-07-28T16:12:56.265Z,2.75
2022-07-28T16:17:59.645Z,2.80
2022-07-28T16:23:04.446Z,3.38
2022-07-28T16:28:10.118Z,3.08
2022-07-28T16:33:13.624Z,3.03
2022-07-28T16:38:19.418Z,3.22
2022-07-28T16:43:24.053Z,4.38
2022-07-28T16:48:28.000Z,9.20
2022-07-28T16:53:39.469Z,6.88
2022-07-28T16:58:42.803Z,6.07
2022-07-28T17:03:46.512Z,5.07
2022-07-28T17:09:06.498Z,4.72
2022-07-28T17:14:23.357Z,3.95
2022-07-28T17:19:33.184Z,3.92
2022-07-28T17:24:38.248Z,3.70
2022-07-28T17:29:42.717Z,3.35
2022-07-28T17:34:47.666Z,3.28
2022-07-28T17:39:52.325Z,3.60
2022-07-28T17:44:59.631Z,3.42
2022-07-28T17:50:03.021Z,3.33
2022-07-28T17:55:26.405Z,3.45
2022-07-28T18:00:32.571Z,3.45
2022-07-28T18:05:36.173Z,3.42
2022-07-28T18:10:43.171Z,3.60
2022-07-28T18:15:47.202Z,3.80
2022-07-28T18:20:50.523Z,3.72
2022-07-28T18:25:55.505Z,3.67
2022-07-28T18:30:59.266Z,3.35
2022-07-28T18:36:02.834Z,2.55
2022-07-28T18:41:08.790Z,2.65
2022-07-28T18:46:12.361Z,3.22
2022-07-28T18:51:16.125Z,3.67
2022-07-28T18:56:29.064Z,3.67
2022-07-28T19:01:36.498Z,3.45
2022-07-28T19:06:42.538Z,7.57
2022-07-28T19:11:49.581Z,4.05
2022-07-28T19:16:53.099Z,2.22
2022-07-28T19:21:56.658Z,2.03
2022-07-28T19:27:05.473Z,1.52
2022-07-28T19:32:10.041Z,1.60
2022-07-28T19:37:16.725Z,1.60
2022-07-28T19:42:37.890Z,1.58
2022-07-28T19:48:28.583Z,1.95
2022-07-28T19:53:41.526Z,1.30
2022-07-28T19:58:53.589Z,1.10
2022-07-28T20:04:03.385Z,1.63
2022-07-28T20:09:20.401Z,1.40
2022-07-28T20:14:25.148Z,1.42
2022-07-28T20:19:28.538Z,1.30
2022-07-28T20:24:47.595Z,1.30
2022-07-28T20:29:52.820Z,1.33
2022-07-28T20:35:01.379Z,1.30
2022-07-28T20:40:05.702Z,1.20
2022-07-28T20:45:11.528Z,1.10
2022-07-28T20:50:16.536Z,1.23
2022-07-28T20:55:23.990Z,1.25
2022-07-28T21:00:32.800Z,1.52
2022-07-28T21:05:42.651Z,1.20
2022-07-28T21:10:48.268Z,1.20
2022-07-28T21:15:53.423Z,0.98
2022-07-28T21:20:57.261Z,1.33
2022-07-28T21:26:01.160Z,1.30
2022-07-28T21:31:06.055Z,1.33
2022-07-28T21:36:09.534Z,1.15
2022-07-28T21:41:14.105Z,1.30
2022-07-28T21:46:19.970Z,1.15
2022-07-28T21:51:24.528Z,1.17
2022-07-28T21:56:28.593Z,1.10
2022-07-28T22:01:34.014Z,1.10
2022-07-28T22:06:37.667Z,1.17
2022-07-28T22:11:40.934Z,1.20
2022-07-28T22:16:46.021Z,1.00
2022-07-28T22:21:49.656Z,1.02
2022-07-28T22:26:57.695Z,1.00
2022-07-28T22:32:03.833Z,1.00
2022-07-28T22:37:12.903Z,1.00
2022-07-28T22:42:16.975Z,1.10
2022-07-28T22:47:21.690Z,0.98
2022-07-28T22:52:28.482Z,0.90
2022-07-28T22:57:31.921Z,0.90
2022-07-28T23:02:36.541Z,1.05
2022-07-28T23:07:52.928Z,1.27
2022-07-28T23:13:00.800Z,1.20
2022-07-28T23:18:05.816Z,0.95
2022-07-28T23:23:09.064Z,1.10
2022-07-28T23:28:12.739Z,1.08
2022-07-28T23:33:56.442Z,1.20
2022-07-28T23:38:41.950Z,1.23
2022-07-28T23:43:46.357Z,1.02
2022-07-28T23:48:51.182Z,1.30
2022-07-28T23:53:56.520Z,1.10
2022-07-28T23:58:59.853Z,1.30
